Weather at Postojna Airfield

Public forecast

Using degrees Celsius for public forecast. Weather courtesy of forecast.io.

Closest aviation weather report (METAR) to Postojna Airfield

Closest report is Portorož Airport, 29.6 nm (54.7 km) SW.

2024/05/22 18:30 (retrieved 11 minutes ago)

LJPZ 221830Z AUTO 28012KT 250V320 9999 FEW031/// BKN090/// 19/12 Q1013

Closest aviation forecast (TAF) to Postojna Airfield

Closest forecast is Ljubljana Jože Pučnik Airport, 30.4 nm (56.2 km) NNE.

2024/05/22 18:06 (retrieved 35 minutes ago)

TAF LJLJ 221700Z 2218/2318 VRB02KT 9999 FEW040 PROB30 TEMPO 2218/2221 SHRA FEW035TCU PROB30 TEMPO 2302/2306 0500 FG VV002 TEMPO 2309/2318 SHRA FEW035TCU SCT050 PROB30 TEMPO 2310/2318 5000 TSRA FEW035CB BKN050